sensor_id;sensor_type;location;lat;lon;timestamp;P1;durP1;ratioP1;P2;durP2;ratioP2
69419;SDS011;56612;52.030;113.524;2023-02-13T00:01:51;13.68;;;3.75;;
69419;SDS011;56612;52.030;113.524;2023-02-13T00:04:56;8.77;;;2.87;;
69419;SDS011;56612;52.030;113.524;2023-02-13T00:07:59;19.02;;;4.90;;
69419;SDS011;56612;52.030;113.524;2023-02-13T00:11:03;17.42;;;4.30;;
69419;SDS011;56612;52.030;113.524;2023-02-13T00:14:06;14.35;;;4.15;;
69419;SDS011;56612;52.030;113.524;2023-02-13T00:17:09;14.23;;;4.30;;
69419;SDS011;56612;52.030;113.524;2023-02-13T00:20:12;16.77;;;4.93;;
69419;SDS011;56612;52.030;113.524;2023-02-13T00:23:15;9.65;;;3.75;;
69419;SDS011;56612;52.030;113.524;2023-02-13T00:26:18;14.98;;;4.20;;
69419;SDS011;56612;52.030;113.524;2023-02-13T00:29:22;15.45;;;3.90;;
69419;SDS011;56612;52.030;113.524;2023-02-13T00:32:25;17.73;;;5.10;;
69419;SDS011;56612;52.030;113.524;2023-02-13T00:35:29;13.30;;;3.90;;
69419;SDS011;56612;52.030;113.524;2023-02-13T00:38:33;12.27;;;4.33;;
69419;SDS011;56612;52.030;113.524;2023-02-13T00:41:38;18.70;;;4.43;;
69419;SDS011;56612;52.030;113.524;2023-02-13T00:44:42;12.43;;;4.20;;
69419;SDS011;56612;52.030;113.524;2023-02-13T00:47:45;14.80;;;4.13;;
69419;SDS011;56612;52.030;113.524;2023-02-13T00:50:49;21.45;;;5.95;;
69419;SDS011;56612;52.030;113.524;2023-02-13T00:53:56;18.77;;;3.97;;
69419;SDS011;56612;52.030;113.524;2023-02-13T00:57:00;17.88;;;4.53;;
69419;SDS011;56612;52.030;113.524;2023-02-13T01:00:04;13.73;;;5.07;;
69419;SDS011;56612;52.030;113.524;2023-02-13T01:03:09;16.10;;;5.47;;
69419;SDS011;56612;52.030;113.524;2023-02-13T01:06:12;21.30;;;4.83;;
69419;SDS011;56612;52.030;113.524;2023-02-13T01:09:15;21.45;;;5.82;;
69419;SDS011;56612;52.030;113.524;2023-02-13T01:12:19;18.80;;;5.97;;
69419;SDS011;56612;52.030;113.524;2023-02-13T01:15:23;18.90;;;6.32;;
69419;SDS011;56612;52.030;113.524;2023-02-13T01:18:26;21.10;;;5.85;;
69419;SDS011;56612;52.030;113.524;2023-02-13T01:21:30;17.67;;;4.60;;
69419;SDS011;56612;52.030;113.524;2023-02-13T01:24:34;18.30;;;4.78;;
69419;SDS011;56612;52.030;113.524;2023-02-13T01:27:37;15.02;;;4.78;;
69419;SDS011;56612;52.030;113.524;2023-02-13T01:30:41;16.33;;;5.30;;
69419;SDS011;56612;52.030;113.524;2023-02-13T01:33:45;18.63;;;5.18;;
69419;SDS011;56612;52.030;113.524;2023-02-13T01:36:48;15.97;;;5.17;;
69419;SDS011;56612;52.030;113.524;2023-02-13T01:39:51;12.00;;;3.58;;
69419;SDS011;56612;52.030;113.524;2023-02-13T01:42:56;10.85;;;3.30;;
69419;SDS011;56612;52.030;113.524;2023-02-13T01:46:00;9.00;;;3.35;;
69419;SDS011;56612;52.030;113.524;2023-02-13T01:49:06;8.05;;;2.55;;
69419;SDS011;56612;52.030;113.524;2023-02-13T01:52:20;11.07;;;2.47;;
69419;SDS011;56612;52.030;113.524;2023-02-13T01:55:23;11.20;;;2.25;;
69419;SDS011;56612;52.030;113.524;2023-02-13T01:58:30;9.63;;;3.10;;
69419;SDS011;56612;52.030;113.524;2023-02-13T02:01:35;9.18;;;2.67;;
69419;SDS011;56612;52.030;113.524;2023-02-13T02:04:41;12.43;;;2.90;;
69419;SDS011;56612;52.030;113.524;2023-02-13T02:07:50;15.90;;;3.50;;
69419;SDS011;56612;52.030;113.524;2023-02-13T02:10:59;9.15;;;3.60;;
69419;SDS011;56612;52.030;113.524;2023-02-13T02:14:09;9.10;;;2.30;;
69419;SDS011;56612;52.030;113.524;2023-02-13T02:17:15;5.80;;;2.33;;
69419;SDS011;56612;52.030;113.524;2023-02-13T02:23:50;7.03;;;1.20;;
69419;SDS011;56612;52.030;113.524;2023-02-13T02:30:31;14.02;;;2.33;;
69419;SDS011;56612;52.030;113.524;2023-02-13T02:37:28;3.92;;;1.15;;
69419;SDS011;56612;52.030;113.524;2023-02-13T02:40:51;12.00;;;2.00;;
69419;SDS011;56612;52.030;113.524;2023-02-13T02:47:24;7.15;;;1.88;;
69419;SDS011;56612;52.030;113.524;2023-02-13T02:54:30;7.35;;;1.75;;
69419;SDS011;56612;52.030;113.524;2023-02-13T03:01:34;3.77;;;1.27;;
69419;SDS011;56612;52.030;113.524;2023-02-13T03:04:58;7.43;;;2.30;;
69419;SDS011;56612;52.030;113.524;2023-02-13T03:08:22;8.43;;;1.80;;
69419;SDS011;56612;52.030;113.524;2023-02-13T03:11:48;12.77;;;3.67;;
69419;SDS011;56612;52.030;113.524;2023-02-13T03:15:12;10.00;;;2.90;;
69419;SDS011;56612;52.030;113.524;2023-02-13T03:18:15;12.10;;;2.47;;
69419;SDS011;56612;52.030;113.524;2023-02-13T03:25:14;3.85;;;1.05;;
69419;SDS011;56612;52.030;113.524;2023-02-13T03:32:11;8.33;;;3.10;;
69419;SDS011;56612;52.030;113.524;2023-02-13T03:35:51;7.27;;;1.87;;
69419;SDS011;56612;52.030;113.524;2023-02-13T03:42:54;6.82;;;2.42;;
69419;SDS011;56612;52.030;113.524;2023-02-13T03:46:05;10.10;;;3.03;;
69419;SDS011;56612;52.030;113.524;2023-02-13T03:49:17;4.70;;;1.27;;
69419;SDS011;56612;52.030;113.524;2023-02-13T03:52:57;18.67;;;3.45;;
69419;SDS011;56612;52.030;113.524;2023-02-13T03:56:04;5.57;;;1.80;;
69419;SDS011;56612;52.030;113.524;2023-02-13T03:59:29;3.85;;;0.77;;
69419;SDS011;56612;52.030;113.524;2023-02-13T04:02:38;7.60;;;1.33;;
69419;SDS011;56612;52.030;113.524;2023-02-13T04:05:52;6.87;;;2.00;;
69419;SDS011;56612;52.030;113.524;2023-02-13T04:09:01;4.47;;;1.05;;
69419;SDS011;56612;52.030;113.524;2023-02-13T04:12:15;6.20;;;1.60;;
69419;SDS011;56612;52.030;113.524;2023-02-13T04:15:27;8.70;;;2.35;;
69419;SDS011;56612;52.030;113.524;2023-02-13T04:18:45;6.82;;;1.55;;
69419;SDS011;56612;52.030;113.524;2023-02-13T04:21:55;10.67;;;2.10;;
69419;SDS011;56612;52.030;113.524;2023-02-13T04:25:00;20.63;;;1.80;;
69419;SDS011;56612;52.030;113.524;2023-02-13T04:28:03;9.52;;;1.73;;
69419;SDS011;56612;52.030;113.524;2023-02-13T04:31:06;21.20;;;2.88;;
69419;SDS011;56612;52.030;113.524;2023-02-13T04:34:10;20.88;;;2.80;;
69419;SDS011;56612;52.030;113.524;2023-02-13T04:37:14;15.27;;;3.50;;
69419;SDS011;56612;52.030;113.524;2023-02-13T04:40:18;16.15;;;3.00;;
69419;SDS011;56612;52.030;113.524;2023-02-13T04:43:23;8.52;;;2.95;;
69419;SDS011;56612;52.030;113.524;2023-02-13T04:46:27;11.63;;;2.67;;
69419;SDS011;56612;52.030;113.524;2023-02-13T04:49:31;9.77;;;2.35;;
69419;SDS011;56612;52.030;113.524;2023-02-13T04:52:34;19.20;;;5.20;;
69419;SDS011;56612;52.030;113.524;2023-02-13T04:55:37;9.35;;;2.88;;
69419;SDS011;56612;52.030;113.524;2023-02-13T04:58:42;11.25;;;1.75;;
69419;SDS011;56612;52.030;113.524;2023-02-13T05:01:45;10.43;;;2.70;;
69419;SDS011;56612;52.030;113.524;2023-02-13T05:04:48;17.60;;;2.55;;
69419;SDS011;56612;52.030;113.524;2023-02-13T05:07:51;16.30;;;3.30;;
69419;SDS011;56612;52.030;113.524;2023-02-13T05:10:54;16.10;;;3.00;;
69419;SDS011;56612;52.030;113.524;2023-02-13T05:13:58;18.50;;;3.25;;
69419;SDS011;56612;52.030;113.524;2023-02-13T05:17:01;17.55;;;3.55;;
69419;SDS011;56612;52.030;113.524;2023-02-13T05:20:04;22.15;;;3.53;;
69419;SDS011;56612;52.030;113.524;2023-02-13T05:23:13;22.90;;;3.67;;
69419;SDS011;56612;52.030;113.524;2023-02-13T05:26:26;13.23;;;2.45;;
69419;SDS011;56612;52.030;113.524;2023-02-13T05:29:29;11.15;;;2.17;;
69419;SDS011;56612;52.030;113.524;2023-02-13T05:32:32;12.30;;;2.33;;
69419;SDS011;56612;52.030;113.524;2023-02-13T05:35:35;12.52;;;2.50;;
69419;SDS011;56612;52.030;113.524;2023-02-13T05:38:39;17.47;;;3.30;;
69419;SDS011;56612;52.030;113.524;2023-02-13T05:41:43;11.68;;;2.58;;
69419;SDS011;56612;52.030;113.524;2023-02-13T05:44:48;12.25;;;2.60;;
69419;SDS011;56612;52.030;113.524;2023-02-13T05:47:51;14.82;;;3.08;;
69419;SDS011;56612;52.030;113.524;2023-02-13T05:50:55;8.63;;;2.55;;
69419;SDS011;56612;52.030;113.524;2023-02-13T05:53:59;7.20;;;1.67;;
69419;SDS011;56612;52.030;113.524;2023-02-13T05:57:02;6.90;;;1.75;;
69419;SDS011;56612;52.030;113.524;2023-02-13T06:00:06;11.23;;;2.05;;
69419;SDS011;56612;52.030;113.524;2023-02-13T06:03:10;12.00;;;1.90;;
69419;SDS011;56612;52.030;113.524;2023-02-13T06:06:14;9.23;;;2.63;;
69419;SDS011;56612;52.030;113.524;2023-02-13T06:09:18;13.60;;;3.43;;
69419;SDS011;56612;52.030;113.524;2023-02-13T06:12:21;15.93;;;3.60;;
69419;SDS011;56612;52.030;113.524;2023-02-13T06:15:25;18.40;;;3.97;;
69419;SDS011;56612;52.030;113.524;2023-02-13T06:18:29;14.77;;;3.15;;
69419;SDS011;56612;52.030;113.524;2023-02-13T06:21:33;12.13;;;2.75;;
69419;SDS011;56612;52.030;113.524;2023-02-13T06:24:39;13.63;;;3.13;;
69419;SDS011;56612;52.030;113.524;2023-02-13T06:27:43;11.43;;;3.87;;
69419;SDS011;56612;52.030;113.524;2023-02-13T06:30:47;14.73;;;3.40;;
69419;SDS011;56612;52.030;113.524;2023-02-13T06:33:50;9.13;;;2.80;;
69419;SDS011;56612;52.030;113.524;2023-02-13T06:36:53;16.38;;;3.65;;
69419;SDS011;56612;52.030;113.524;2023-02-13T06:39:56;11.77;;;2.83;;
69419;SDS011;56612;52.030;113.524;2023-02-13T06:43:00;10.30;;;3.03;;
69419;SDS011;56612;52.030;113.524;2023-02-13T06:46:07;9.77;;;3.10;;
69419;SDS011;56612;52.030;113.524;2023-02-13T06:49:10;9.10;;;2.58;;
69419;SDS011;56612;52.030;113.524;2023-02-13T06:52:13;19.23;;;3.55;;
69419;SDS011;56612;52.030;113.524;2023-02-13T06:55:17;16.10;;;2.63;;
69419;SDS011;56612;52.030;113.524;2023-02-13T06:58:22;13.37;;;3.30;;
69419;SDS011;56612;52.030;113.524;2023-02-13T07:01:26;9.75;;;3.30;;
69419;SDS011;56612;52.030;113.524;2023-02-13T07:04:30;13.98;;;3.70;;
69419;SDS011;56612;52.030;113.524;2023-02-13T07:07:34;27.50;;;7.00;;
69419;SDS011;56612;52.030;113.524;2023-02-13T07:10:40;24.07;;;4.43;;
69419;SDS011;56612;52.030;113.524;2023-02-13T07:13:44;9.43;;;2.80;;
69419;SDS011;56612;52.030;113.524;2023-02-13T07:16:48;10.48;;;3.45;;
69419;SDS011;56612;52.030;113.524;2023-02-13T07:19:51;12.50;;;3.53;;
69419;SDS011;56612;52.030;113.524;2023-02-13T07:23:02;10.93;;;3.60;;
69419;SDS011;56612;52.030;113.524;2023-02-13T07:26:07;12.07;;;3.07;;
69419;SDS011;56612;52.030;113.524;2023-02-13T07:29:12;12.20;;;2.60;;
69419;SDS011;56612;52.030;113.524;2023-02-13T07:32:16;14.70;;;4.40;;
69419;SDS011;56612;52.030;113.524;2023-02-13T07:35:19;12.43;;;2.88;;
69419;SDS011;56612;52.030;113.524;2023-02-13T07:38:22;10.95;;;2.78;;
69419;SDS011;56612;52.030;113.524;2023-02-13T07:41:25;8.50;;;2.63;;
69419;SDS011;56612;52.030;113.524;2023-02-13T07:44:29;7.10;;;2.67;;
69419;SDS011;56612;52.030;113.524;2023-02-13T07:47:32;12.05;;;2.75;;
69419;SDS011;56612;52.030;113.524;2023-02-13T07:50:37;13.10;;;2.88;;
69419;SDS011;56612;52.030;113.524;2023-02-13T07:53:41;9.30;;;2.70;;
69419;SDS011;56612;52.030;113.524;2023-02-13T07:56:45;6.60;;;2.30;;
69419;SDS011;56612;52.030;113.524;2023-02-13T07:59:48;14.73;;;4.67;;
69419;SDS011;56612;52.030;113.524;2023-02-13T08:02:51;10.90;;;3.85;;
69419;SDS011;56612;52.030;113.524;2023-02-13T08:05:54;10.13;;;3.60;;
69419;SDS011;56612;52.030;113.524;2023-02-13T08:08:59;21.48;;;4.18;;
69419;SDS011;56612;52.030;113.524;2023-02-13T08:12:20;22.83;;;4.83;;
69419;SDS011;56612;52.030;113.524;2023-02-13T08:15:24;9.53;;;3.60;;
69419;SDS011;56612;52.030;113.524;2023-02-13T08:18:28;12.95;;;3.53;;
69419;SDS011;56612;52.030;113.524;2023-02-13T08:21:32;10.40;;;3.30;;
69419;SDS011;56612;52.030;113.524;2023-02-13T08:24:37;19.73;;;4.00;;
69419;SDS011;56612;52.030;113.524;2023-02-13T08:27:40;16.83;;;4.80;;
69419;SDS011;56612;52.030;113.524;2023-02-13T08:30:44;13.83;;;3.87;;
69419;SDS011;56612;52.030;113.524;2023-02-13T08:33:47;9.70;;;3.28;;
69419;SDS011;56612;52.030;113.524;2023-02-13T08:36:50;16.85;;;3.90;;
69419;SDS011;56612;52.030;113.524;2023-02-13T08:39:54;18.63;;;4.50;;
69419;SDS011;56612;52.030;113.524;2023-02-13T08:42:58;15.33;;;4.57;;
69419;SDS011;56612;52.030;113.524;2023-02-13T08:46:03;17.23;;;5.03;;
69419;SDS011;56612;52.030;113.524;2023-02-13T08:49:06;15.65;;;4.38;;
69419;SDS011;56612;52.030;113.524;2023-02-13T08:52:10;8.48;;;3.20;;
69419;SDS011;56612;52.030;113.524;2023-02-13T08:55:13;12.38;;;3.20;;
69419;SDS011;56612;52.030;113.524;2023-02-13T08:58:17;11.57;;;3.10;;
69419;SDS011;56612;52.030;113.524;2023-02-13T09:01:20;6.37;;;2.90;;
69419;SDS011;56612;52.030;113.524;2023-02-13T09:04:26;8.63;;;3.35;;
69419;SDS011;56612;52.030;113.524;2023-02-13T09:07:30;13.73;;;4.25;;
69419;SDS011;56612;52.030;113.524;2023-02-13T09:10:34;15.27;;;5.72;;
69419;SDS011;56612;52.030;113.524;2023-02-13T09:13:37;21.10;;;5.93;;
69419;SDS011;56612;52.030;113.524;2023-02-13T09:16:41;17.07;;;6.03;;
69419;SDS011;56612;52.030;113.524;2023-02-13T09:19:44;28.27;;;6.53;;
69419;SDS011;56612;52.030;113.524;2023-02-13T09:22:49;29.45;;;7.68;;
69419;SDS011;56612;52.030;113.524;2023-02-13T09:25:52;20.52;;;7.30;;
69419;SDS011;56612;52.030;113.524;2023-02-13T09:28:57;27.50;;;8.70;;
69419;SDS011;56612;52.030;113.524;2023-02-13T09:32:00;35.30;;;9.57;;
69419;SDS011;56612;52.030;113.524;2023-02-13T09:35:04;36.38;;;9.45;;
69419;SDS011;56612;52.030;113.524;2023-02-13T09:38:09;33.53;;;9.30;;
69419;SDS011;56612;52.030;113.524;2023-02-13T09:41:14;22.98;;;8.48;;
69419;SDS011;56612;52.030;113.524;2023-02-13T09:47:41;85.80;;;29.00;;
69419;SDS011;56612;52.030;113.524;2023-02-13T09:50:46;89.20;;;31.13;;
69419;SDS011;56612;52.030;113.524;2023-02-13T09:53:56;64.60;;;23.35;;
69419;SDS011;56612;52.030;113.524;2023-02-13T09:57:13;91.32;;;29.23;;
69419;SDS011;56612;52.030;113.524;2023-02-13T10:00:39;61.00;;;21.43;;
69419;SDS011;56612;52.030;113.524;2023-02-13T10:07:06;65.30;;;25.85;;
69419;SDS011;56612;52.030;113.524;2023-02-13T10:17:18;56.17;;;21.53;;
69419;SDS011;56612;52.030;113.524;2023-02-13T10:20:33;56.35;;;21.05;;
69419;SDS011;56612;52.030;113.524;2023-02-13T10:24:03;55.08;;;18.73;;
69419;SDS011;56612;52.030;113.524;2023-02-13T10:27:24;46.78;;;17.20;;
69419;SDS011;56612;52.030;113.524;2023-02-13T10:30:34;39.85;;;15.10;;
69419;SDS011;56612;52.030;113.524;2023-02-13T10:33:53;41.80;;;13.90;;
69419;SDS011;56612;52.030;113.524;2023-02-13T10:37:07;36.72;;;13.25;;
69419;SDS011;56612;52.030;113.524;2023-02-13T10:40:17;38.67;;;13.73;;
69419;SDS011;56612;52.030;113.524;2023-02-13T10:43:22;41.05;;;13.75;;
69419;SDS011;56612;52.030;113.524;2023-02-13T10:57:21;24.15;;;9.32;;
69419;SDS011;56612;52.030;113.524;2023-02-13T11:03:23;41.47;;;13.07;;
69419;SDS011;56612;52.030;113.524;2023-02-13T11:06:30;31.27;;;11.03;;
69419;SDS011;56612;52.030;113.524;2023-02-13T11:09:39;30.60;;;11.15;;
69419;SDS011;56612;52.030;113.524;2023-02-13T11:12:44;56.42;;;13.07;;
69419;SDS011;56612;52.030;113.524;2023-02-13T11:15:59;53.55;;;16.85;;
69419;SDS011;56612;52.030;113.524;2023-02-13T11:19:15;70.00;;;21.88;;
69419;SDS011;56612;52.030;113.524;2023-02-13T11:25:37;70.70;;;18.50;;
69419;SDS011;56612;52.030;113.524;2023-02-13T11:28:50;63.33;;;19.15;;
69419;SDS011;56612;52.030;113.524;2023-02-13T11:32:01;58.30;;;18.25;;
69419;SDS011;56612;52.030;113.524;2023-02-13T11:38:30;65.13;;;17.67;;
69419;SDS011;56612;52.030;113.524;2023-02-13T11:41:41;71.20;;;22.60;;
69419;SDS011;56612;52.030;113.524;2023-02-13T11:44:51;95.30;;;35.97;;
69419;SDS011;56612;52.030;113.524;2023-02-13T11:47:56;86.32;;;26.35;;
69419;SDS011;56612;52.030;113.524;2023-02-13T11:50:59;72.05;;;23.98;;
69419;SDS011;56612;52.030;113.524;2023-02-13T11:54:04;72.47;;;21.00;;
69419;SDS011;56612;52.030;113.524;2023-02-13T12:00:34;61.70;;;21.52;;
69419;SDS011;56612;52.030;113.524;2023-02-13T12:03:42;72.35;;;26.20;;
69419;SDS011;56612;52.030;113.524;2023-02-13T12:10:28;70.37;;;21.93;;
69419;SDS011;56612;52.030;113.524;2023-02-13T12:13:36;58.53;;;20.05;;
69419;SDS011;56612;52.030;113.524;2023-02-13T12:16:46;57.40;;;19.38;;
69419;SDS011;56612;52.030;113.524;2023-02-13T12:19:52;60.53;;;19.35;;
69419;SDS011;56612;52.030;113.524;2023-02-13T12:23:02;46.88;;;14.63;;
69419;SDS011;56612;52.030;113.524;2023-02-13T12:26:49;53.73;;;14.80;;
69419;SDS011;56612;52.030;113.524;2023-02-13T12:30:14;48.55;;;14.52;;
69419;SDS011;56612;52.030;113.524;2023-02-13T12:40:42;84.60;;;23.90;;
69419;SDS011;56612;52.030;113.524;2023-02-13T12:54:16;110.97;;;34.17;;
69419;SDS011;56612;52.030;113.524;2023-02-13T13:18:24;93.50;;;24.40;;
69419;SDS011;56612;52.030;113.524;2023-02-13T13:21:54;110.93;;;31.33;;
69419;SDS011;56612;52.030;113.524;2023-02-13T13:28:16;107.78;;;31.40;;
69419;SDS011;56612;52.030;113.524;2023-02-13T13:31:24;138.20;;;40.92;;
69419;SDS011;56612;52.030;113.524;2023-02-13T13:34:30;116.10;;;32.03;;
69419;SDS011;56612;52.030;113.524;2023-02-13T13:37:46;113.93;;;34.00;;
69419;SDS011;56612;52.030;113.524;2023-02-13T13:41:14;87.22;;;30.45;;
69419;SDS011;56612;52.030;113.524;2023-02-13T13:51:11;47.67;;;14.57;;
69419;SDS011;56612;52.030;113.524;2023-02-13T13:54:19;46.83;;;14.13;;
69419;SDS011;56612;52.030;113.524;2023-02-13T14:00:43;61.05;;;16.10;;
69419;SDS011;56612;52.030;113.524;2023-02-13T14:03:47;46.75;;;14.75;;
69419;SDS011;56612;52.030;113.524;2023-02-13T14:07:12;66.57;;;16.90;;
69419;SDS011;56612;52.030;113.524;2023-02-13T14:13:31;54.15;;;20.00;;
69419;SDS011;56612;52.030;113.524;2023-02-13T14:16:38;58.22;;;18.38;;
69419;SDS011;56612;52.030;113.524;2023-02-13T14:19:44;59.13;;;20.40;;
69419;SDS011;56612;52.030;113.524;2023-02-13T14:22:54;76.50;;;22.90;;
69419;SDS011;56612;52.030;113.524;2023-02-13T14:26:12;98.38;;;30.15;;
69419;SDS011;56612;52.030;113.524;2023-02-13T14:29:30;98.85;;;28.35;;
69419;SDS011;56612;52.030;113.524;2023-02-13T14:32:37;79.57;;;23.45;;
69419;SDS011;56612;52.030;113.524;2023-02-13T14:35:42;72.55;;;20.02;;
69419;SDS011;56612;52.030;113.524;2023-02-13T14:38:56;85.93;;;22.03;;
69419;SDS011;56612;52.030;113.524;2023-02-13T14:42:05;85.22;;;24.58;;
69419;SDS011;56612;52.030;113.524;2023-02-13T14:45:32;111.40;;;26.27;;
69419;SDS011;56612;52.030;113.524;2023-02-13T14:48:48;127.63;;;32.45;;
69419;SDS011;56612;52.030;113.524;2023-02-13T14:52:05;132.77;;;46.50;;
69419;SDS011;56612;52.030;113.524;2023-02-13T14:55:34;89.27;;;28.10;;
69419;SDS011;56612;52.030;113.524;2023-02-13T14:58:53;77.13;;;24.20;;
69419;SDS011;56612;52.030;113.524;2023-02-13T15:02:22;106.60;;;28.10;;
69419;SDS011;56612;52.030;113.524;2023-02-13T15:05:33;144.07;;;43.08;;
69419;SDS011;56612;52.030;113.524;2023-02-13T15:08:44;231.70;;;69.43;;
69419;SDS011;56612;52.030;113.524;2023-02-13T15:11:51;251.23;;;77.40;;
69419;SDS011;56612;52.030;113.524;2023-02-13T15:14:55;306.88;;;89.47;;
69419;SDS011;56612;52.030;113.524;2023-02-13T15:17:59;310.20;;;91.90;;
69419;SDS011;56612;52.030;113.524;2023-02-13T15:21:15;289.25;;;86.50;;
69419;SDS011;56612;52.030;113.524;2023-02-13T15:24:22;209.50;;;57.67;;
69419;SDS011;56612;52.030;113.524;2023-02-13T15:27:30;231.63;;;65.90;;
69419;SDS011;56612;52.030;113.524;2023-02-13T15:30:36;86.32;;;24.58;;
69419;SDS011;56612;52.030;113.524;2023-02-13T15:33:47;160.57;;;50.00;;
69419;SDS011;56612;52.030;113.524;2023-02-13T15:36:54;163.48;;;43.00;;
69419;SDS011;56612;52.030;113.524;2023-02-13T15:43:35;202.67;;;57.87;;
69419;SDS011;56612;52.030;113.524;2023-02-13T15:46:46;233.35;;;60.83;;
69419;SDS011;56612;52.030;113.524;2023-02-13T15:49:53;219.73;;;66.43;;
69419;SDS011;56612;52.030;113.524;2023-02-13T15:52:57;213.40;;;59.95;;
69419;SDS011;56612;52.030;113.524;2023-02-13T15:56:03;171.85;;;50.30;;
69419;SDS011;56612;52.030;113.524;2023-02-13T15:59:07;170.20;;;48.33;;
69419;SDS011;56612;52.030;113.524;2023-02-13T16:05:49;210.25;;;56.65;;
69419;SDS011;56612;52.030;113.524;2023-02-13T16:08:54;154.63;;;42.70;;
69419;SDS011;56612;52.030;113.524;2023-02-13T16:12:00;196.07;;;48.17;;
69419;SDS011;56612;52.030;113.524;2023-02-13T16:15:12;178.77;;;48.50;;
69419;SDS011;56612;52.030;113.524;2023-02-13T16:18:18;187.85;;;48.28;;
69419;SDS011;56612;52.030;113.524;2023-02-13T16:21:23;222.13;;;57.42;;
69419;SDS011;56612;52.030;113.524;2023-02-13T16:24:31;238.52;;;63.88;;
69419;SDS011;56612;52.030;113.524;2023-02-13T16:27:35;187.38;;;51.50;;
69419;SDS011;56612;52.030;113.524;2023-02-13T16:31:24;245.97;;;68.00;;
69419;SDS011;56612;52.030;113.524;2023-02-13T16:34:22;169.55;;;40.15;;
69419;SDS011;56612;52.030;113.524;2023-02-13T16:37:32;132.25;;;35.70;;
69419;SDS011;56612;52.030;113.524;2023-02-13T16:40:37;128.65;;;33.10;;
69419;SDS011;56612;52.030;113.524;2023-02-13T16:43:54;94.05;;;24.98;;
69419;SDS011;56612;52.030;113.524;2023-02-13T16:47:00;91.87;;;25.37;;
69419;SDS011;56612;52.030;113.524;2023-02-13T16:50:11;152.05;;;40.53;;
69419;SDS011;56612;52.030;113.524;2023-02-13T16:53:17;152.05;;;38.97;;
69419;SDS011;56612;52.030;113.524;2023-02-13T16:56:21;137.50;;;38.70;;
69419;SDS011;56612;52.030;113.524;2023-02-13T17:02:35;131.60;;;34.67;;
69419;SDS011;56612;52.030;113.524;2023-02-13T17:05:40;106.50;;;29.25;;
69419;SDS011;56612;52.030;113.524;2023-02-13T17:08:42;87.32;;;25.52;;
69419;SDS011;56612;52.030;113.524;2023-02-13T17:11:50;46.25;;;13.75;;
69419;SDS011;56612;52.030;113.524;2023-02-13T17:14:55;25.58;;;9.27;;
69419;SDS011;56612;52.030;113.524;2023-02-13T17:18:02;32.80;;;9.17;;
69419;SDS011;56612;52.030;113.524;2023-02-13T17:21:05;39.35;;;11.00;;
69419;SDS011;56612;52.030;113.524;2023-02-13T17:24:15;42.38;;;11.95;;
69419;SDS011;56612;52.030;113.524;2023-02-13T17:27:20;55.55;;;15.25;;
69419;SDS011;56612;52.030;113.524;2023-02-13T17:30:25;108.78;;;27.10;;
69419;SDS011;56612;52.030;113.524;2023-02-13T17:33:31;123.93;;;33.67;;
69419;SDS011;56612;52.030;113.524;2023-02-13T17:36:37;152.50;;;40.55;;
69419;SDS011;56612;52.030;113.524;2023-02-13T17:39:40;166.15;;;44.75;;
69419;SDS011;56612;52.030;113.524;2023-02-13T17:42:45;154.13;;;44.33;;
69419;SDS011;56612;52.030;113.524;2023-02-13T17:45:52;134.80;;;36.50;;
69419;SDS011;56612;52.030;113.524;2023-02-13T17:48:56;125.47;;;34.87;;
69419;SDS011;56612;52.030;113.524;2023-02-13T17:51:59;139.80;;;35.15;;
69419;SDS011;56612;52.030;113.524;2023-02-13T17:55:03;109.35;;;29.02;;
69419;SDS011;56612;52.030;113.524;2023-02-13T17:58:08;78.78;;;22.10;;
69419;SDS011;56612;52.030;113.524;2023-02-13T18:01:12;73.43;;;22.20;;
69419;SDS011;56612;52.030;113.524;2023-02-13T18:04:15;73.20;;;23.67;;
69419;SDS011;56612;52.030;113.524;2023-02-13T18:07:19;80.43;;;24.42;;
69419;SDS011;56612;52.030;113.524;2023-02-13T18:10:24;102.53;;;26.45;;
69419;SDS011;56612;52.030;113.524;2023-02-13T18:13:29;97.78;;;27.95;;
69419;SDS011;56612;52.030;113.524;2023-02-13T18:16:33;99.50;;;27.48;;
69419;SDS011;56612;52.030;113.524;2023-02-13T18:19:37;117.72;;;29.02;;
69419;SDS011;56612;52.030;113.524;2023-02-13T18:22:41;76.50;;;22.38;;
69419;SDS011;56612;52.030;113.524;2023-02-13T18:25:46;59.15;;;18.23;;
69419;SDS011;56612;52.030;113.524;2023-02-13T18:28:49;73.53;;;20.67;;
69419;SDS011;56612;52.030;113.524;2023-02-13T18:31:54;74.63;;;22.42;;
69419;SDS011;56612;52.030;113.524;2023-02-13T18:34:58;77.30;;;20.63;;
69419;SDS011;56612;52.030;113.524;2023-02-13T18:38:03;76.78;;;21.08;;
69419;SDS011;56612;52.030;113.524;2023-02-13T18:41:06;79.03;;;23.60;;
69419;SDS011;56612;52.030;113.524;2023-02-13T18:44:10;79.38;;;22.27;;
69419;SDS011;56612;52.030;113.524;2023-02-13T18:47:28;57.22;;;19.05;;
69419;SDS011;56612;52.030;113.524;2023-02-13T18:50:32;72.53;;;21.35;;
69419;SDS011;56612;52.030;113.524;2023-02-13T18:53:35;74.10;;;21.07;;
69419;SDS011;56612;52.030;113.524;2023-02-13T18:56:38;79.93;;;23.33;;
69419;SDS011;56612;52.030;113.524;2023-02-13T18:59:41;72.53;;;22.05;;
69419;SDS011;56612;52.030;113.524;2023-02-13T19:02:45;74.20;;;21.30;;
69419;SDS011;56612;52.030;113.524;2023-02-13T19:05:49;68.37;;;19.07;;
69419;SDS011;56612;52.030;113.524;2023-02-13T19:08:53;84.60;;;24.63;;
69419;SDS011;56612;52.030;113.524;2023-02-13T19:11:58;76.18;;;23.70;;
69419;SDS011;56612;52.030;113.524;2023-02-13T19:15:02;81.03;;;21.67;;
69419;SDS011;56612;52.030;113.524;2023-02-13T19:18:06;60.30;;;19.25;;
69419;SDS011;56612;52.030;113.524;2023-02-13T19:21:10;67.47;;;18.33;;
69419;SDS011;56612;52.030;113.524;2023-02-13T19:24:15;54.00;;;17.05;;
69419;SDS011;56612;52.030;113.524;2023-02-13T19:27:18;56.60;;;17.27;;
69419;SDS011;56612;52.030;113.524;2023-02-13T19:30:21;45.22;;;14.52;;
69419;SDS011;56612;52.030;113.524;2023-02-13T19:33:24;75.35;;;17.05;;
69419;SDS011;56612;52.030;113.524;2023-02-13T19:36:28;70.57;;;19.73;;
69419;SDS011;56612;52.030;113.524;2023-02-13T19:39:32;102.97;;;25.07;;
69419;SDS011;56612;52.030;113.524;2023-02-13T19:42:35;119.10;;;33.70;;
69419;SDS011;56612;52.030;113.524;2023-02-13T19:45:41;104.93;;;32.03;;
69419;SDS011;56612;52.030;113.524;2023-02-13T19:48:46;139.50;;;33.67;;
69419;SDS011;56612;52.030;113.524;2023-02-13T19:51:50;130.17;;;33.83;;
69419;SDS011;56612;52.030;113.524;2023-02-13T19:54:54;106.43;;;27.80;;
69419;SDS011;56612;52.030;113.524;2023-02-13T19:57:57;90.03;;;24.15;;
69419;SDS011;56612;52.030;113.524;2023-02-13T20:01:07;46.33;;;15.68;;
69419;SDS011;56612;52.030;113.524;2023-02-13T20:04:15;80.63;;;24.03;;
69419;SDS011;56612;52.030;113.524;2023-02-13T20:07:19;55.50;;;12.90;;
69419;SDS011;56612;52.030;113.524;2023-02-13T20:10:23;38.80;;;11.27;;
69419;SDS011;56612;52.030;113.524;2023-02-13T20:13:26;34.38;;;10.43;;